sensor_id;sensor_type;location;lat;lon;timestamp;temperature;humidity
49503;DHT22;35409;48.776;9.204;2023-05-07T00:00:19;13.80;99.90
49503;DHT22;35409;48.776;9.204;2023-05-07T00:02:45;13.80;99.90
49503;DHT22;35409;48.776;9.204;2023-05-07T00:05:11;13.80;99.90
49503;DHT22;35409;48.776;9.204;2023-05-07T00:07:36;13.80;99.90
49503;DHT22;35409;48.776;9.204;2023-05-07T00:10:03;13.70;99.90
49503;DHT22;35409;48.776;9.204;2023-05-07T00:12:29;13.70;99.90
49503;DHT22;35409;48.776;9.204;2023-05-07T00:14:57;13.60;99.90
49503;DHT22;35409;48.776;9.204;2023-05-07T00:17:23;13.60;99.90
49503;DHT22;35409;48.776;9.204;2023-05-07T00:19:48;13.60;99.90
49503;DHT22;35409;48.776;9.204;2023-05-07T00:22:14;13.50;99.90
49503;DHT22;35409;48.776;9.204;2023-05-07T00:24:39;13.50;99.90
49503;DHT22;35409;48.776;9.204;2023-05-07T00:27:05;13.50;99.90
49503;DHT22;35409;48.776;9.204;2023-05-07T00:29:30;13.50;99.90
49503;DHT22;35409;48.776;9.204;2023-05-07T00:31:56;13.50;99.90
49503;DHT22;35409;48.776;9.204;2023-05-07T00:34:22;13.40;99.90
49503;DHT22;35409;48.776;9.204;2023-05-07T00:36:48;13.40;99.90
49503;DHT22;35409;48.776;9.204;2023-05-07T00:39:13;13.40;99.90
49503;DHT22;35409;48.776;9.204;2023-05-07T00:41:39;13.40;99.90
49503;DHT22;35409;48.776;9.204;2023-05-07T00:44:05;13.40;99.90
49503;DHT22;35409;48.776;9.204;2023-05-07T00:46:31;13.40;99.90
49503;DHT22;35409;48.776;9.204;2023-05-07T00:48:57;13.40;99.90
49503;DHT22;35409;48.776;9.204;2023-05-07T00:51:25;13.40;99.90
49503;DHT22;35409;48.776;9.204;2023-05-07T00:53:53;13.30;99.90
49503;DHT22;35409;48.776;9.204;2023-05-07T00:56:20;13.30;99.90
49503;DHT22;35409;48.776;9.204;2023-05-07T00:58:46;13.30;99.90
49503;DHT22;35409;48.776;9.204;2023-05-07T01:01:11;13.30;99.90
49503;DHT22;35409;48.776;9.204;2023-05-07T01:03:37;13.20;99.90
49503;DHT22;35409;48.776;9.204;2023-05-07T01:06:03;13.20;99.90
49503;DHT22;35409;48.776;9.204;2023-05-07T01:08:31;13.20;99.90
49503;DHT22;35409;48.776;9.204;2023-05-07T01:10:57;13.20;99.90
49503;DHT22;35409;48.776;9.204;2023-05-07T01:13:24;13.20;99.90
49503;DHT22;35409;48.776;9.204;2023-05-07T01:15:51;13.10;99.90
49503;DHT22;35409;48.776;9.204;2023-05-07T01:18:16;13.10;99.90
49503;DHT22;35409;48.776;9.204;2023-05-07T01:20:42;13.10;99.90
49503;DHT22;35409;48.776;9.204;2023-05-07T01:23:08;13.00;99.90
49503;DHT22;35409;48.776;9.204;2023-05-07T01:25:35;13.00;99.90
49503;DHT22;35409;48.776;9.204;2023-05-07T01:28:01;13.00;99.90
49503;DHT22;35409;48.776;9.204;2023-05-07T02:53:30;12.50;99.90
49503;DHT22;35409;48.776;9.204;2023-05-07T02:55:57;12.40;99.90
49503;DHT22;35409;48.776;9.204;2023-05-07T02:58:23;12.30;99.90
49503;DHT22;35409;48.776;9.204;2023-05-07T03:00:49;12.20;99.90
49503;DHT22;35409;48.776;9.204;2023-05-07T03:03:15;12.10;99.90
49503;DHT22;35409;48.776;9.204;2023-05-07T03:05:41;12.10;99.90
49503;DHT22;35409;48.776;9.204;2023-05-07T03:08:07;12.10;99.90
49503;DHT22;35409;48.776;9.204;2023-05-07T03:10:33;12.10;99.90
49503;DHT22;35409;48.776;9.204;2023-05-07T03:12:59;12.00;99.90
49503;DHT22;35409;48.776;9.204;2023-05-07T03:15:24;12.00;99.90
49503;DHT22;35409;48.776;9.204;2023-05-07T03:17:50;12.00;99.90
49503;DHT22;35409;48.776;9.204;2023-05-07T03:20:15;11.90;99.90
49503;DHT22;35409;48.776;9.204;2023-05-07T03:22:41;11.90;99.90
49503;DHT22;35409;48.776;9.204;2023-05-07T03:25:08;11.80;99.90
49503;DHT22;35409;48.776;9.204;2023-05-07T03:27:34;11.70;99.90
49503;DHT22;35409;48.776;9.204;2023-05-07T03:30:00;11.70;99.90
49503;DHT22;35409;48.776;9.204;2023-05-07T03:32:25;11.60;99.90
49503;DHT22;35409;48.776;9.204;2023-05-07T03:34:51;11.60;99.90
49503;DHT22;35409;48.776;9.204;2023-05-07T03:37:17;11.60;99.90
49503;DHT22;35409;48.776;9.204;2023-05-07T03:39:42;11.60;99.90
49503;DHT22;35409;48.776;9.204;2023-05-07T03:42:08;11.50;99.90
49503;DHT22;35409;48.776;9.204;2023-05-07T03:44:34;11.50;99.90
49503;DHT22;35409;48.776;9.204;2023-05-07T03:47:01;11.60;99.90
49503;DHT22;35409;48.776;9.204;2023-05-07T03:49:27;11.50;99.90
49503;DHT22;35409;48.776;9.204;2023-05-07T03:51:52;11.60;99.90
49503;DHT22;35409;48.776;9.204;2023-05-07T03:54:18;11.60;99.90
49503;DHT22;35409;48.776;9.204;2023-05-07T03:56:44;11.60;99.90
49503;DHT22;35409;48.776;9.204;2023-05-07T03:59:09;11.60;99.90
49503;DHT22;35409;48.776;9.204;2023-05-07T04:01:35;11.60;99.90
49503;DHT22;35409;48.776;9.204;2023-05-07T04:04:01;11.60;99.90
49503;DHT22;35409;48.776;9.204;2023-05-07T04:06:26;11.60;99.90
49503;DHT22;35409;48.776;9.204;2023-05-07T04:08:52;11.60;99.90
49503;DHT22;35409;48.776;9.204;2023-05-07T04:11:18;11.50;99.90
49503;DHT22;35409;48.776;9.204;2023-05-07T04:13:44;11.50;99.90
49503;DHT22;35409;48.776;9.204;2023-05-07T04:16:09;11.50;99.90
49503;DHT22;35409;48.776;9.204;2023-05-07T04:18:35;11.50;99.90
49503;DHT22;35409;48.776;9.204;2023-05-07T04:21:01;11.50;99.90
49503;DHT22;35409;48.776;9.204;2023-05-07T04:23:26;11.50;99.90
49503;DHT22;35409;48.776;9.204;2023-05-07T04:25:52;11.50;99.90
49503;DHT22;35409;48.776;9.204;2023-05-07T04:28:19;11.50;99.90
49503;DHT22;35409;48.776;9.204;2023-05-07T04:30:45;11.60;99.90
49503;DHT22;35409;48.776;9.204;2023-05-07T04:33:11;11.60;99.90
49503;DHT22;35409;48.776;9.204;2023-05-07T04:35:37;11.60;99.90
49503;DHT22;35409;48.776;9.204;2023-05-07T04:38:03;11.70;99.90
49503;DHT22;35409;48.776;9.204;2023-05-07T04:40:29;11.70;99.90
49503;DHT22;35409;48.776;9.204;2023-05-07T04:42:54;11.80;99.90
49503;DHT22;35409;48.776;9.204;2023-05-07T04:45:20;11.80;99.90
49503;DHT22;35409;48.776;9.204;2023-05-07T04:47:45;11.90;99.90
49503;DHT22;35409;48.776;9.204;2023-05-07T04:50:11;12.00;99.90
49503;DHT22;35409;48.776;9.204;2023-05-07T04:52:37;12.00;99.90
49503;DHT22;35409;48.776;9.204;2023-05-07T04:55:02;12.10;99.90
49503;DHT22;35409;48.776;9.204;2023-05-07T04:57:28;12.10;99.90
49503;DHT22;35409;48.776;9.204;2023-05-07T04:59:54;12.10;99.90
49503;DHT22;35409;48.776;9.204;2023-05-07T05:02:19;12.10;99.90
49503;DHT22;35409;48.776;9.204;2023-05-07T05:04:45;12.10;99.90
49503;DHT22;35409;48.776;9.204;2023-05-07T05:07:11;12.10;99.90
49503;DHT22;35409;48.776;9.204;2023-05-07T05:09:36;12.10;99.90
49503;DHT22;35409;48.776;9.204;2023-05-07T05:12:02;12.10;99.90
49503;DHT22;35409;48.776;9.204;2023-05-07T05:14:28;12.10;99.90
49503;DHT22;35409;48.776;9.204;2023-05-07T05:16:54;12.10;99.90
49503;DHT22;35409;48.776;9.204;2023-05-07T05:19:19;12.10;99.90
49503;DHT22;35409;48.776;9.204;2023-05-07T05:21:45;12.20;99.90
49503;DHT22;35409;48.776;9.204;2023-05-07T05:24:11;12.20;99.90
49503;DHT22;35409;48.776;9.204;2023-05-07T05:26:36;12.30;99.90
49503;DHT22;35409;48.776;9.204;2023-05-07T05:29:02;12.40;99.90
49503;DHT22;35409;48.776;9.204;2023-05-07T05:31:28;12.50;99.90
49503;DHT22;35409;48.776;9.204;2023-05-07T05:33:53;12.60;99.90
49503;DHT22;35409;48.776;9.204;2023-05-07T05:36:19;12.80;99.90
49503;DHT22;35409;48.776;9.204;2023-05-07T05:38:44;12.90;99.90
49503;DHT22;35409;48.776;9.204;2023-05-07T05:41:10;13.10;99.90
49503;DHT22;35409;48.776;9.204;2023-05-07T05:43:36;13.20;99.90
49503;DHT22;35409;48.776;9.204;2023-05-07T05:46:01;13.40;99.90
49503;DHT22;35409;48.776;9.204;2023-05-07T05:48:28;13.60;99.90
49503;DHT22;35409;48.776;9.204;2023-05-07T05:50:54;13.80;99.90
49503;DHT22;35409;48.776;9.204;2023-05-07T05:53:20;13.90;99.90
49503;DHT22;35409;48.776;9.204;2023-05-07T05:55:45;14.10;99.90
49503;DHT22;35409;48.776;9.204;2023-05-07T05:58:11;14.30;99.90
49503;DHT22;35409;48.776;9.204;2023-05-07T06:00:37;14.30;99.90
49503;DHT22;35409;48.776;9.204;2023-05-07T06:03:02;14.40;99.90
49503;DHT22;35409;48.776;9.204;2023-05-07T06:05:28;14.50;99.90
49503;DHT22;35409;48.776;9.204;2023-05-07T06:07:54;14.50;99.90
49503;DHT22;35409;48.776;9.204;2023-05-07T06:10:19;14.60;99.90
49503;DHT22;35409;48.776;9.204;2023-05-07T06:12:45;14.70;99.90
49503;DHT22;35409;48.776;9.204;2023-05-07T06:15:10;14.80;99.90
49503;DHT22;35409;48.776;9.204;2023-05-07T06:17:36;14.90;99.90
49503;DHT22;35409;48.776;9.204;2023-05-07T06:20:02;15.10;99.90
49503;DHT22;35409;48.776;9.204;2023-05-07T06:22:27;15.20;99.90
49503;DHT22;35409;48.776;9.204;2023-05-07T06:24:53;15.20;99.90
49503;DHT22;35409;48.776;9.204;2023-05-07T06:27:18;15.30;99.90
49503;DHT22;35409;48.776;9.204;2023-05-07T06:29:44;15.30;99.90
49503;DHT22;35409;48.776;9.204;2023-05-07T06:32:11;15.30;99.90
49503;DHT22;35409;48.776;9.204;2023-05-07T06:34:38;15.20;99.90
49503;DHT22;35409;48.776;9.204;2023-05-07T06:37:03;15.10;99.90
49503;DHT22;35409;48.776;9.204;2023-05-07T06:39:29;15.00;99.90
49503;DHT22;35409;48.776;9.204;2023-05-07T06:41:55;15.00;99.90
49503;DHT22;35409;48.776;9.204;2023-05-07T06:44:20;15.00;99.90
49503;DHT22;35409;48.776;9.204;2023-05-07T06:46:46;15.00;99.90
49503;DHT22;35409;48.776;9.204;2023-05-07T06:49:15;15.00;99.90
49503;DHT22;35409;48.776;9.204;2023-05-07T06:51:41;15.10;99.90
49503;DHT22;35409;48.776;9.204;2023-05-07T06:54:06;15.10;99.90
49503;DHT22;35409;48.776;9.204;2023-05-07T06:56:32;15.10;99.90
49503;DHT22;35409;48.776;9.204;2023-05-07T06:59:00;15.20;99.90
49503;DHT22;35409;48.776;9.204;2023-05-07T07:01:25;15.40;99.90
49503;DHT22;35409;48.776;9.204;2023-05-07T07:03:51;15.50;99.90
49503;DHT22;35409;48.776;9.204;2023-05-07T07:06:17;15.70;99.90
49503;DHT22;35409;48.776;9.204;2023-05-07T07:08:42;15.90;99.90
49503;DHT22;35409;48.776;9.204;2023-05-07T07:11:10;16.00;99.90
49503;DHT22;35409;48.776;9.204;2023-05-07T07:13:36;16.20;99.90
49503;DHT22;35409;48.776;9.204;2023-05-07T07:16:02;16.40;99.90
49503;DHT22;35409;48.776;9.204;2023-05-07T07:18:28;16.60;99.90
49503;DHT22;35409;48.776;9.204;2023-05-07T07:20:53;16.70;99.90
49503;DHT22;35409;48.776;9.204;2023-05-07T07:23:19;16.90;99.90
49503;DHT22;35409;48.776;9.204;2023-05-07T07:25:45;17.10;99.90
49503;DHT22;35409;48.776;9.204;2023-05-07T07:28:11;17.30;99.90
49503;DHT22;35409;48.776;9.204;2023-05-07T07:30:37;17.50;99.90
49503;DHT22;35409;48.776;9.204;2023-05-07T07:33:03;17.80;99.90
49503;DHT22;35409;48.776;9.204;2023-05-07T07:35:29;18.20;99.90
49503;DHT22;35409;48.776;9.204;2023-05-07T07:37:55;18.40;99.90
49503;DHT22;35409;48.776;9.204;2023-05-07T07:40:21;18.80;99.90
49503;DHT22;35409;48.776;9.204;2023-05-07T07:42:47;19.00;99.90
49503;DHT22;35409;48.776;9.204;2023-05-07T07:45:12;19.20;99.90
49503;DHT22;35409;48.776;9.204;2023-05-07T07:47:39;19.50;99.90
49503;DHT22;35409;48.776;9.204;2023-05-07T07:50:05;19.80;99.90
49503;DHT22;35409;48.776;9.204;2023-05-07T07:52:31;20.10;99.90
49503;DHT22;35409;48.776;9.204;2023-05-07T07:57:22;21.10;99.90
49503;DHT22;35409;48.776;9.204;2023-05-07T07:59:48;21.00;99.90
49503;DHT22;35409;48.776;9.204;2023-05-07T08:02:14;21.20;99.90
49503;DHT22;35409;48.776;9.204;2023-05-07T08:04:39;21.30;99.90
49503;DHT22;35409;48.776;9.204;2023-05-07T08:07:05;21.40;99.90
49503;DHT22;35409;48.776;9.204;2023-05-07T08:09:31;21.50;99.90
49503;DHT22;35409;48.776;9.204;2023-05-07T08:11:57;21.70;99.90
49503;DHT22;35409;48.776;9.204;2023-05-07T08:14:22;21.90;99.90
49503;DHT22;35409;48.776;9.204;2023-05-07T08:16:48;22.00;99.90
49503;DHT22;35409;48.776;9.204;2023-05-07T08:19:14;22.00;99.90
49503;DHT22;35409;48.776;9.204;2023-05-07T08:21:40;22.20;99.90
49503;DHT22;35409;48.776;9.204;2023-05-07T08:24:06;22.30;99.90
49503;DHT22;35409;48.776;9.204;2023-05-07T08:26:32;22.40;99.90
49503;DHT22;35409;48.776;9.204;2023-05-07T08:28:57;22.50;99.90
49503;DHT22;35409;48.776;9.204;2023-05-07T08:31:23;22.60;99.90
49503;DHT22;35409;48.776;9.204;2023-05-07T08:58:13;23.10;99.90
49503;DHT22;35409;48.776;9.204;2023-05-07T09:00:40;23.20;99.90
49503;DHT22;35409;48.776;9.204;2023-05-07T09:03:07;23.20;99.90
49503;DHT22;35409;48.776;9.204;2023-05-07T09:05:32;23.10;99.90
49503;DHT22;35409;48.776;9.204;2023-05-07T09:08:06;23.20;99.90
49503;DHT22;35409;48.776;9.204;2023-05-07T09:10:35;23.30;99.90
49503;DHT22;35409;48.776;9.204;2023-05-07T09:20:26;23.60;99.90
49503;DHT22;35409;48.776;9.204;2023-05-07T09:22:52;23.90;99.90
49503;DHT22;35409;48.776;9.204;2023-05-07T09:25:28;23.90;99.90
49503;DHT22;35409;48.776;9.204;2023-05-07T09:27:54;24.00;99.90
49503;DHT22;35409;48.776;9.204;2023-05-07T09:30:20;24.00;99.90
49503;DHT22;35409;48.776;9.204;2023-05-07T09:32:46;24.20;99.90
49503;DHT22;35409;48.776;9.204;2023-05-07T09:35:16;24.30;99.90
49503;DHT22;35409;48.776;9.204;2023-05-07T09:37:42;24.20;99.90
49503;DHT22;35409;48.776;9.204;2023-05-07T09:40:08;24.30;99.90
49503;DHT22;35409;48.776;9.204;2023-05-07T09:42:45;24.50;99.90
49503;DHT22;35409;48.776;9.204;2023-05-07T09:45:12;24.50;99.90
49503;DHT22;35409;48.776;9.204;2023-05-07T09:47:38;24.50;99.90
49503;DHT22;35409;48.776;9.204;2023-05-07T09:50:07;24.50;99.60
49503;DHT22;35409;48.776;9.204;2023-05-07T09:52:34;24.60;98.10
49503;DHT22;35409;48.776;9.204;2023-05-07T09:55:02;24.60;97.10
49503;DHT22;35409;48.776;9.204;2023-05-07T09:57:28;24.70;96.50
49503;DHT22;35409;48.776;9.204;2023-05-07T09:59:56;24.80;96.60
49503;DHT22;35409;48.776;9.204;2023-05-07T10:02:25;24.90;96.50
49503;DHT22;35409;48.776;9.204;2023-05-07T10:04:52;24.90;98.20
49503;DHT22;35409;48.776;9.204;2023-05-07T10:07:20;25.00;97.80
49503;DHT22;35409;48.776;9.204;2023-05-07T10:09:46;25.10;99.90
49503;DHT22;35409;48.776;9.204;2023-05-07T10:12:12;25.20;99.90
49503;DHT22;35409;48.776;9.204;2023-05-07T10:14:37;25.30;99.90
49503;DHT22;35409;48.776;9.204;2023-05-07T10:17:03;25.50;99.60
49503;DHT22;35409;48.776;9.204;2023-05-07T10:19:29;25.60;96.70
49503;DHT22;35409;48.776;9.204;2023-05-07T10:22:02;25.70;99.90
49503;DHT22;35409;48.776;9.204;2023-05-07T10:27:01;26.00;90.80
49503;DHT22;35409;48.776;9.204;2023-05-07T10:34:40;26.50;90.00
49503;DHT22;35409;48.776;9.204;2023-05-07T10:37:08;26.80;89.20
49503;DHT22;35409;48.776;9.204;2023-05-07T10:42:11;27.80;87.80
49503;DHT22;35409;48.776;9.204;2023-05-07T10:44:37;27.70;88.10
49503;DHT22;35409;48.776;9.204;2023-05-07T10:47:10;27.90;86.10
49503;DHT22;35409;48.776;9.204;2023-05-07T10:52:31;27.80;83.30
49503;DHT22;35409;48.776;9.204;2023-05-07T10:57:46;27.50;83.30
49503;DHT22;35409;48.776;9.204;2023-05-07T11:05:24;27.30;79.30
49503;DHT22;35409;48.776;9.204;2023-05-07T11:08:01;27.50;79.50
49503;DHT22;35409;48.776;9.204;2023-05-07T11:10:56;27.70;78.60
49503;DHT22;35409;48.776;9.204;2023-05-07T11:13:55;28.00;78.00
49503;DHT22;35409;48.776;9.204;2023-05-07T11:16:24;28.20;77.10
49503;DHT22;35409;48.776;9.204;2023-05-07T11:18:55;28.20;77.20
49503;DHT22;35409;48.776;9.204;2023-05-07T11:21:35;28.40;76.30
49503;DHT22;35409;48.776;9.204;2023-05-07T11:24:02;28.70;75.80
49503;DHT22;35409;48.776;9.204;2023-05-07T11:26:30;28.90;74.80
49503;DHT22;35409;48.776;9.204;2023-05-07T11:28:56;28.80;74.70
49503;DHT22;35409;48.776;9.204;2023-05-07T11:31:24;28.80;73.40
49503;DHT22;35409;48.776;9.204;2023-05-07T11:33:52;28.80;73.10
49503;DHT22;35409;48.776;9.204;2023-05-07T11:36:18;28.80;72.60
49503;DHT22;35409;48.776;9.204;2023-05-07T11:38:46;28.60;73.80
49503;DHT22;35409;48.776;9.204;2023-05-07T11:41:11;28.20;75.20
49503;DHT22;35409;48.776;9.204;2023-05-07T11:43:37;27.80;75.10
49503;DHT22;35409;48.776;9.204;2023-05-07T11:46:10;27.40;76.20
49503;DHT22;35409;48.776;9.204;2023-05-07T11:48:36;27.00;77.60
49503;DHT22;35409;48.776;9.204;2023-05-07T11:51:03;26.60;78.30
49503;DHT22;35409;48.776;9.204;2023-05-07T11:53:42;26.30;78.90
49503;DHT22;35409;48.776;9.204;2023-05-07T11:56:09;25.90;79.30
49503;DHT22;35409;48.776;9.204;2023-05-07T11:58:35;25.50;80.00
49503;DHT22;35409;48.776;9.204;2023-05-07T12:01:00;25.20;81.00
49503;DHT22;35409;48.776;9.204;2023-05-07T12:03:26;25.00;81.90
49503;DHT22;35409;48.776;9.204;2023-05-07T12:05:52;24.80;82.10
49503;DHT22;35409;48.776;9.204;2023-05-07T12:08:18;24.40;82.10
49503;DHT22;35409;48.776;9.204;2023-05-07T12:10:45;24.20;83.30
49503;DHT22;35409;48.776;9.204;2023-05-07T12:13:20;23.90;83.40
49503;DHT22;35409;48.776;9.204;2023-05-07T12:15:46;23.70;84.10
49503;DHT22;35409;48.776;9.204;2023-05-07T12:18:12;23.50;85.10
49503;DHT22;35409;48.776;9.204;2023-05-07T12:20:39;23.40;86.30
49503;DHT22;35409;48.776;9.204;2023-05-07T12:23:05;23.20;86.60
49503;DHT22;35409;48.776;9.204;2023-05-07T12:25:41;22.90;87.40
49503;DHT22;35409;48.776;9.204;2023-05-07T12:28:13;22.40;93.20
49503;DHT22;35409;48.776;9.204;2023-05-07T12:30:41;21.40;99.90
49503;DHT22;35409;48.776;9.204;2023-05-07T12:33:07;20.40;99.90
49503;DHT22;35409;48.776;9.204;2023-05-07T12:35:40;19.60;99.90
49503;DHT22;35409;48.776;9.204;2023-05-07T12:38:14;19.00;99.90
49503;DHT22;35409;48.776;9.204;2023-05-07T12:40:48;18.50;99.90
49503;DHT22;35409;48.776;9.204;2023-05-07T12:58:24;16.30;99.90
49503;DHT22;35409;48.776;9.204;2023-05-07T13:05:49;14.90;99.90
49503;DHT22;35409;48.776;9.204;2023-05-07T13:08:44;14.80;99.90
49503;DHT22;35409;48.776;9.204;2023-05-07T13:11:11;14.60;99.90
49503;DHT22;35409;48.776;9.204;2023-05-07T13:13:38;14.50;99.90
49503;DHT22;35409;48.776;9.204;2023-05-07T13:16:06;14.30;99.90
49503;DHT22;35409;48.776;9.204;2023-05-07T13:18:33;14.20;99.90
49503;DHT22;35409;48.776;9.204;2023-05-07T13:20:59;14.20;99.90
49503;DHT22;35409;48.776;9.204;2023-05-07T13:23:26;14.20;99.90
49503;DHT22;35409;48.776;9.204;2023-05-07T13:25:52;14.20;99.90
49503;DHT22;35409;48.776;9.204;2023-05-07T13:28:23;14.10;99.90
49503;DHT22;35409;48.776;9.204;2023-05-07T13:30:49;14.10;99.90
49503;DHT22;35409;48.776;9.204;2023-05-07T13:33:14;14.00;99.90
49503;DHT22;35409;48.776;9.204;2023-05-07T13:35:41;13.80;99.90
49503;DHT22;35409;48.776;9.204;2023-05-07T14:57:21;14.30;99.90
49503;DHT22;35409;48.776;9.204;2023-05-07T14:59:47;14.30;99.90
49503;DHT22;35409;48.776;9.204;2023-05-07T15:02:13;14.30;99.90
49503;DHT22;35409;48.776;9.204;2023-05-07T15:09:40;14.50;99.90
49503;DHT22;35409;48.776;9.204;2023-05-07T15:12:06;14.50;99.90
49503;DHT22;35409;48.776;9.204;2023-05-07T15:14:32;14.50;99.90
49503;DHT22;35409;48.776;9.204;2023-05-07T15:16:57;14.50;99.90
49503;DHT22;35409;48.776;9.204;2023-05-07T15:19:23;14.50;99.90
49503;DHT22;35409;48.776;9.204;2023-05-07T15:21:50;14.50;99.90
49503;DHT22;35409;48.776;9.204;2023-05-07T15:24:15;14.50;99.90
49503;DHT22;35409;48.776;9.204;2023-05-07T15:26:41;14.60;99.90
49503;DHT22;35409;48.776;9.204;2023-05-07T15:29:07;14.70;99.90
49503;DHT22;35409;48.776;9.204;2023-05-07T15:31:35;14.80;99.90
49503;DHT22;35409;48.776;9.204;2023-05-07T15:34:02;14.90;99.90
49503;DHT22;35409;48.776;9.204;2023-05-07T15:36:28;15.10;99.90
49503;DHT22;35409;48.776;9.204;2023-05-07T15:38:53;15.00;99.90
49503;DHT22;35409;48.776;9.204;2023-05-07T15:41:20;15.00;99.90
49503;DHT22;35409;48.776;9.204;2023-05-07T15:43:51;15.00;99.90
49503;DHT22;35409;48.776;9.204;2023-05-07T15:46:18;14.90;99.90
49503;DHT22;35409;48.776;9.204;2023-05-07T15:48:45;15.00;99.90
49503;DHT22;35409;48.776;9.204;2023-05-07T15:51:11;15.00;99.90
49503;DHT22;35409;48.776;9.204;2023-05-07T15:53:37;15.10;99.90
49503;DHT22;35409;48.776;9.204;2023-05-07T15:56:03;15.00;99.90
49503;DHT22;35409;48.776;9.204;2023-05-07T15:58:28;15.10;99.90
49503;DHT22;35409;48.776;9.204;2023-05-07T16:00:54;15.10;99.90
49503;DHT22;35409;48.776;9.204;2023-05-07T16:03:20;15.10;99.90
49503;DHT22;35409;48.776;9.204;2023-05-07T16:05:47;15.20;99.90
49503;DHT22;35409;48.776;9.204;2023-05-07T16:08:13;15.20;99.90
49503;DHT22;35409;48.776;9.204;2023-05-07T16:10:39;15.20;99.90
49503;DHT22;35409;48.776;9.204;2023-05-07T16:13:07;15.20;99.90
49503;DHT22;35409;48.776;9.204;2023-05-07T16:15:33;15.20;99.90
49503;DHT22;35409;48.776;9.204;2023-05-07T16:17:58;15.30;99.90
49503;DHT22;35409;48.776;9.204;2023-05-07T16:20:27;15.20;99.90
49503;DHT22;35409;48.776;9.204;2023-05-07T16:22:55;15.20;99.90
49503;DHT22;35409;48.776;9.204;2023-05-07T16:25:21;15.20;99.90
49503;DHT22;35409;48.776;9.204;2023-05-07T16:27:47;15.30;99.90
49503;DHT22;35409;48.776;9.204;2023-05-07T16:30:12;15.30;99.90
49503;DHT22;35409;48.776;9.204;2023-05-07T16:32:38;15.30;99.90
49503;DHT22;35409;48.776;9.204;2023-05-07T16:35:04;15.30;99.90
49503;DHT22;35409;48.776;9.204;2023-05-07T16:37:32;15.30;99.90
49503;DHT22;35409;48.776;9.204;2023-05-07T16:39:59;15.30;99.90
49503;DHT22;35409;48.776;9.204;2023-05-07T16:42:25;15.40;99.90
49503;DHT22;35409;48.776;9.204;2023-05-07T16:44:51;15.40;99.90
49503;DHT22;35409;48.776;9.204;2023-05-07T16:47:17;15.40;99.90
49503;DHT22;35409;48.776;9.204;2023-05-07T16:49:42;15.50;99.90
49503;DHT22;35409;48.776;9.204;2023-05-07T16:52:08;15.50;99.90
49503;DHT22;35409;48.776;9.204;2023-05-07T16:54:35;15.50;99.90
49503;DHT22;35409;48.776;9.204;2023-05-07T16:57:01;15.50;99.90
49503;DHT22;35409;48.776;9.204;2023-05-07T16:59:27;15.50;99.90
49503;DHT22;35409;48.776;9.204;2023-05-07T17:01:56;15.60;99.90
49503;DHT22;35409;48.776;9.204;2023-05-07T17:04:22;15.60;99.90
49503;DHT22;35409;48.776;9.204;2023-05-07T17:06:48;15.60;99.90
49503;DHT22;35409;48.776;9.204;2023-05-07T17:09:13;15.60;99.90
49503;DHT22;35409;48.776;9.204;2023-05-07T17:11:39;15.70;99.90
49503;DHT22;35409;48.776;9.204;2023-05-07T17:14:04;15.70;99.90
49503;DHT22;35409;48.776;9.204;2023-05-07T17:16:30;15.70;99.90
49503;DHT22;35409;48.776;9.204;2023-05-07T17:18:56;15.70;99.90
49503;DHT22;35409;48.776;9.204;2023-05-07T17:21:21;15.70;99.90
49503;DHT22;35409;48.776;9.204;2023-05-07T17:23:47;15.70;99.90
49503;DHT22;35409;48.776;9.204;2023-05-07T17:26:13;15.70;99.90
49503;DHT22;35409;48.776;9.204;2023-05-07T17:28:39;15.70;99.90
49503;DHT22;35409;48.776;9.204;2023-05-07T17:31:05;15.70;99.90
49503;DHT22;35409;48.776;9.204;2023-05-07T17:33:30;15.70;99.90
49503;DHT22;35409;48.776;9.204;2023-05-07T17:35:56;15.70;99.90
49503;DHT22;35409;48.776;9.204;2023-05-07T17:38:22;15.70;99.90
49503;DHT22;35409;48.776;9.204;2023-05-07T17:40:47;15.70;99.90
49503;DHT22;35409;48.776;9.204;2023-05-07T17:43:14;15.70;99.90
49503;DHT22;35409;48.776;9.204;2023-05-07T17:45:40;15.70;99.90
49503;DHT22;35409;48.776;9.204;2023-05-07T17:48:05;15.60;99.90
49503;DHT22;35409;48.776;9.204;2023-05-07T17:50:31;15.60;99.90
49503;DHT22;35409;48.776;9.204;2023-05-07T17:52:57;15.60;99.90
49503;DHT22;35409;48.776;9.204;2023-05-07T17:55:22;15.60;99.90
49503;DHT22;35409;48.776;9.204;2023-05-07T17:57:48;15.60;99.90
49503;DHT22;35409;48.776;9.204;2023-05-07T18:00:14;15.50;99.90
49503;DHT22;35409;48.776;9.204;2023-05-07T18:02:39;15.50;99.90
49503;DHT22;35409;48.776;9.204;2023-05-07T18:05:06;15.50;99.90
49503;DHT22;35409;48.776;9.204;2023-05-07T18:07:33;15.50;99.90
49503;DHT22;35409;48.776;9.204;2023-05-07T18:09:58;15.40;99.90
49503;DHT22;35409;48.776;9.204;2023-05-07T18:12:24;15.40;99.90
49503;DHT22;35409;48.776;9.204;2023-05-07T18:14:49;15.40;99.90
49503;DHT22;35409;48.776;9.204;2023-05-07T18:17:15;15.40;99.90
49503;DHT22;35409;48.776;9.204;2023-05-07T18:19:41;15.40;99.90
49503;DHT22;35409;48.776;9.204;2023-05-07T18:22:07;15.30;99.90
49503;DHT22;35409;48.776;9.204;2023-05-07T18:24:33;15.30;99.90
49503;DHT22;35409;48.776;9.204;2023-05-07T18:26:58;15.20;99.90
49503;DHT22;35409;48.776;9.204;2023-05-07T18:29:24;15.20;99.90
49503;DHT22;35409;48.776;9.204;2023-05-07T18:31:50;15.20;99.90
49503;DHT22;35409;48.776;9.204;2023-05-07T18:34:15;15.10;99.90
49503;DHT22;35409;48.776;9.204;2023-05-07T18:36:41;15.00;99.90
49503;DHT22;35409;48.776;9.204;2023-05-07T18:39:07;15.00;99.90
49503;DHT22;35409;48.776;9.204;2023-05-07T18:41:34;15.00;99.90
49503;DHT22;35409;48.776;9.204;2023-05-07T18:44:00;15.00;99.90
49503;DHT22;35409;48.776;9.204;2023-05-07T18:46:25;14.90;99.90
49503;DHT22;35409;48.776;9.204;2023-05-07T18:48:52;14.90;99.90
49503;DHT22;35409;48.776;9.204;2023-05-07T18:51:19;14.80;99.90
49503;DHT22;35409;48.776;9.204;2023-05-07T18:53:45;14.80;99.90
49503;DHT22;35409;48.776;9.204;2023-05-07T18:56:10;14.70;99.90
49503;DHT22;35409;48.776;9.204;2023-05-07T18:58:36;14.70;99.90
49503;DHT22;35409;48.776;9.204;2023-05-07T19:01:02;14.60;99.90
49503;DHT22;35409;48.776;9.204;2023-05-07T19:03:32;14.60;99.90
49503;DHT22;35409;48.776;9.204;2023-05-07T19:05:59;14.50;99.90
49503;DHT22;35409;48.776;9.204;2023-05-07T19:08:24;14.50;99.90
49503;DHT22;35409;48.776;9.204;2023-05-07T19:10:50;14.40;99.90
49503;DHT22;35409;48.776;9.204;2023-05-07T19:13:16;14.40;99.90
49503;DHT22;35409;48.776;9.204;2023-05-07T19:15:41;14.40;99.90
49503;DHT22;35409;48.776;9.204;2023-05-07T19:18:07;14.40;99.90
49503;DHT22;35409;48.776;9.204;2023-05-07T19:20:32;14.40;99.90
49503;DHT22;35409;48.776;9.204;2023-05-07T19:22:58;14.30;99.90
49503;DHT22;35409;48.776;9.204;2023-05-07T19:25:24;14.30;99.90
49503;DHT22;35409;48.776;9.204;2023-05-07T19:27:49;14.30;99.90